createdAt,value
2023-02-11T00:00:26.343Z,0.00
2023-02-11T00:01:26.343Z,0.00
2023-02-11T00:02:26.407Z,0.00
2023-02-11T00:03:26.368Z,0.00
2023-02-11T00:04:26.301Z,0.00
2023-02-11T00:05:26.290Z,0.00
2023-02-11T00:06:26.280Z,0.00
2023-02-11T00:07:26.288Z,0.00
2023-02-11T00:08:26.257Z,0.00
2023-02-11T00:09:26.246Z,0.00
2023-02-11T00:10:26.241Z,0.00
2023-02-11T00:11:26.236Z,0.00
2023-02-11T00:12:26.212Z,0.00
2023-02-11T00:13:26.201Z,0.00
2023-02-11T00:14:26.219Z,0.00
2023-02-11T00:15:26.177Z,0.00
2023-02-11T00:16:26.253Z,0.00
2023-02-11T00:17:26.169Z,0.00
2023-02-11T00:18:26.155Z,0.00
2023-02-11T00:19:26.132Z,0.00
2023-02-11T00:20:26.212Z,0.00
2023-02-11T00:21:26.116Z,0.00
2023-02-11T00:22:26.125Z,0.00
2023-02-11T00:23:26.102Z,0.00
2023-02-11T00:24:26.082Z,0.00
2023-02-11T00:25:26.071Z,0.00
2023-02-11T00:26:26.066Z,0.00
2023-02-11T00:27:26.068Z,0.00
2023-02-11T00:28:26.067Z,0.00
2023-02-11T00:29:26.030Z,0.00
2023-02-11T00:30:26.030Z,0.00
2023-02-11T00:31:26.207Z,0.00
2023-02-11T00:32:26.012Z,0.00
2023-02-11T00:33:25.985Z,0.00
2023-02-11T00:34:25.979Z,0.00
2023-02-11T00:35:25.966Z,0.00
2023-02-11T00:36:32.435Z,0.00
2023-02-11T00:37:25.985Z,0.00
2023-02-11T00:38:25.933Z,0.00
2023-02-11T00:39:25.927Z,0.00
2023-02-11T00:40:25.915Z,0.00
2023-02-11T00:41:25.908Z,0.00
2023-02-11T00:42:25.891Z,0.00
2023-02-11T00:43:25.878Z,0.00
2023-02-11T00:44:25.869Z,0.00
2023-02-11T00:45:25.851Z,0.00
2023-02-11T00:46:25.879Z,0.00
2023-02-11T00:47:25.839Z,0.00
2023-02-11T00:48:25.828Z,0.00
2023-02-11T00:49:25.835Z,0.00
2023-02-11T00:50:25.801Z,0.00
2023-02-11T00:51:25.800Z,0.00
2023-02-11T00:52:25.778Z,0.00
2023-02-11T00:53:25.772Z,0.00
2023-02-11T00:54:27.824Z,0.00
2023-02-11T00:55:25.756Z,0.00
2023-02-11T00:56:25.735Z,0.00
2023-02-11T00:57:25.721Z,0.00
2023-02-11T00:58:25.745Z,0.00
2023-02-11T00:59:25.701Z,0.00
2023-02-11T01:00:26.095Z,0.00
2023-02-11T01:01:25.775Z,0.00
2023-02-11T01:02:25.678Z,0.00
2023-02-11T01:03:25.667Z,0.00
2023-02-11T01:04:25.660Z,0.00
2023-02-11T01:05:25.698Z,0.00
2023-02-11T01:06:25.648Z,0.00
2023-02-11T01:07:25.625Z,0.00
2023-02-11T01:08:25.636Z,0.00
2023-02-11T01:09:25.621Z,0.00
2023-02-11T01:10:25.598Z,0.00
2023-02-11T01:11:25.605Z,0.00
2023-02-11T01:12:25.584Z,0.00
2023-02-11T01:13:25.568Z,0.00
2023-02-11T01:14:25.560Z,0.00
2023-02-11T01:15:25.540Z,0.00
2023-02-11T01:16:25.675Z,0.00
2023-02-11T01:17:25.521Z,0.00
2023-02-11T01:18:25.525Z,0.00
2023-02-11T01:19:25.494Z,0.00
2023-02-11T01:20:25.493Z,0.00
2023-02-11T01:21:25.479Z,0.00
2023-02-11T01:22:25.506Z,0.00
2023-02-11T01:23:25.459Z,0.00
2023-02-11T01:24:25.450Z,0.00
2023-02-11T01:25:25.434Z,0.00
2023-02-11T01:26:25.430Z,0.00
2023-02-11T01:27:25.465Z,0.00
2023-02-11T01:28:25.504Z,0.00
2023-02-11T01:29:25.391Z,0.00
2023-02-11T01:30:25.407Z,0.00
2023-02-11T01:31:25.445Z,0.00
2023-02-11T01:32:25.379Z,0.00
2023-02-11T01:33:25.348Z,0.00
2023-02-11T01:34:25.339Z,0.00
2023-02-11T01:35:25.329Z,0.00
2023-02-11T01:36:25.333Z,0.00
2023-02-11T01:37:25.318Z,0.00
2023-02-11T01:38:25.356Z,0.00
2023-02-11T01:39:25.290Z,0.00
2023-02-11T01:40:25.277Z,0.00
2023-02-11T01:41:25.278Z,0.00
2023-02-11T01:42:25.254Z,0.00
2023-02-11T01:43:25.242Z,0.00
2023-02-11T01:44:25.258Z,0.00
2023-02-11T01:45:25.224Z,0.00
2023-02-11T01:46:25.302Z,0.00
2023-02-11T01:47:25.209Z,0.00
2023-02-11T01:48:25.209Z,0.00
2023-02-11T01:49:25.309Z,0.00
2023-02-11T01:50:25.171Z,0.00
2023-02-11T01:51:25.164Z,0.00
2023-02-11T01:52:25.154Z,0.00
2023-02-11T01:53:25.140Z,0.00
2023-02-11T01:54:25.151Z,0.00
2023-02-11T01:55:25.117Z,0.00
2023-02-11T01:56:25.129Z,0.00
2023-02-11T01:57:25.376Z,0.00
2023-02-11T01:58:25.105Z,0.00
2023-02-11T01:59:25.114Z,0.00
2023-02-11T02:00:25.060Z,0.00
2023-02-11T02:01:25.082Z,0.00
2023-02-11T02:02:25.069Z,0.00
2023-02-11T02:03:25.067Z,0.00
2023-02-11T02:04:25.036Z,0.00
2023-02-11T02:05:25.009Z,0.00
2023-02-11T02:06:25.003Z,0.00
2023-02-11T02:07:25.030Z,0.00
2023-02-11T02:08:25.009Z,0.00
2023-02-11T02:09:24.979Z,0.00
2023-02-11T02:10:24.970Z,0.00
2023-02-11T02:11:24.947Z,0.00
2023-02-11T02:12:24.935Z,0.00
2023-02-11T02:13:24.930Z,0.00
2023-02-11T02:14:24.928Z,0.00
2023-02-11T02:15:24.923Z,0.00
2023-02-11T02:16:24.988Z,0.00
2023-02-11T02:17:24.884Z,0.00
2023-02-11T02:18:24.884Z,0.00
2023-02-11T02:19:24.875Z,0.00
2023-02-11T02:20:24.861Z,0.00
2023-02-11T02:21:24.850Z,0.00
2023-02-11T02:22:24.826Z,0.00
2023-02-11T02:23:24.821Z,0.00
2023-02-11T02:24:24.816Z,0.00
2023-02-11T02:25:24.816Z,0.00
2023-02-11T02:26:24.783Z,0.00
2023-02-11T02:27:24.767Z,0.00
2023-02-11T02:28:24.818Z,0.00
2023-02-11T02:29:24.754Z,0.00
2023-02-11T02:30:24.803Z,0.00
2023-02-11T02:31:24.819Z,0.00
2023-02-11T02:32:24.727Z,0.00
2023-02-11T02:33:24.727Z,0.00
2023-02-11T02:34:24.701Z,0.00
2023-02-11T02:35:24.696Z,0.00
2023-02-11T02:36:24.677Z,0.00
2023-02-11T02:37:24.659Z,0.00
2023-02-11T02:38:24.653Z,0.00
2023-02-11T02:39:24.687Z,0.00
2023-02-11T02:40:24.643Z,0.00
2023-02-11T02:41:24.617Z,0.00
2023-02-11T02:42:24.621Z,0.00
2023-02-11T02:43:24.598Z,0.00
2023-02-11T02:44:24.591Z,0.00
2023-02-11T02:45:24.579Z,0.00
2023-02-11T02:46:24.601Z,0.00
2023-02-11T02:47:24.568Z,0.00
2023-02-11T02:48:24.579Z,0.00
2023-02-11T02:49:24.537Z,0.00
2023-02-11T02:50:24.534Z,0.00
2023-02-11T02:51:24.524Z,0.00
2023-02-11T02:52:24.509Z,0.00
2023-02-11T02:53:24.495Z,0.00
2023-02-11T02:54:24.486Z,0.00
2023-02-11T02:55:24.477Z,0.00
2023-02-11T02:56:24.474Z,0.00
2023-02-11T02:57:24.456Z,0.00
2023-02-11T02:58:24.444Z,0.00
2023-02-11T02:59:24.428Z,0.00
2023-02-11T03:00:24.431Z,0.00
2023-02-11T03:01:24.440Z,0.00
2023-02-11T03:02:24.411Z,0.00
2023-02-11T03:03:24.407Z,0.00
2023-02-11T03:04:24.389Z,0.00
2023-02-11T03:05:24.381Z,0.00
2023-02-11T03:06:24.375Z,0.00
2023-02-11T03:07:24.348Z,0.00
2023-02-11T03:08:24.358Z,0.00
2023-02-11T03:09:24.352Z,0.00
2023-02-11T03:10:24.330Z,0.00
2023-02-11T03:11:24.345Z,0.00
2023-02-11T03:12:24.318Z,0.00
2023-02-11T03:13:24.304Z,0.00
2023-02-11T03:14:24.391Z,0.00
2023-02-11T03:15:24.309Z,0.00
2023-02-11T03:16:24.362Z,0.00
2023-02-11T03:17:24.257Z,0.00
2023-02-11T03:18:24.234Z,0.00
2023-02-11T03:19:24.228Z,0.00
2023-02-11T03:20:24.211Z,0.00
2023-02-11T03:21:24.274Z,0.00
2023-02-11T03:22:24.192Z,0.00
2023-02-11T03:23:24.189Z,0.00
2023-02-11T03:24:24.172Z,0.00
2023-02-11T03:25:24.157Z,0.00
2023-02-11T03:26:24.153Z,0.00
2023-02-11T03:27:24.148Z,0.00
2023-02-11T03:28:24.220Z,0.00
2023-02-11T03:29:24.111Z,0.00
2023-02-11T03:30:24.122Z,0.00
2023-02-11T03:31:24.209Z,0.00
2023-02-11T03:32:24.100Z,0.00
2023-02-11T03:33:24.088Z,0.00
2023-02-11T03:34:24.065Z,0.00
2023-02-11T03:35:24.047Z,0.00
2023-02-11T03:36:24.046Z,0.00
2023-02-11T03:37:24.031Z,0.00
2023-02-11T03:38:24.031Z,0.00
2023-02-11T03:39:24.025Z,0.00
2023-02-11T03:40:24.002Z,0.00
2023-02-11T03:41:23.989Z,0.00
2023-02-11T03:42:23.974Z,0.00
2023-02-11T03:43:23.981Z,0.00
2023-02-11T03:44:23.968Z,0.00
2023-02-11T03:45:23.969Z,0.00
2023-02-11T03:46:24.063Z,0.00
2023-02-11T03:47:23.925Z,0.00
2023-02-11T03:48:23.918Z,0.00
2023-02-11T03:49:23.914Z,0.00
2023-02-11T03:50:23.890Z,0.00
2023-02-11T03:51:23.885Z,0.00
2023-02-11T03:52:23.871Z,0.00
2023-02-11T03:53:23.876Z,0.00
2023-02-11T03:54:23.852Z,0.00
2023-02-11T03:55:23.846Z,0.00
2023-02-11T03:56:23.842Z,0.00
2023-02-11T03:57:23.824Z,0.00
2023-02-11T03:58:23.818Z,0.00
2023-02-11T03:59:23.803Z,0.00
2023-02-11T04:00:23.796Z,0.00
2023-02-11T04:01:23.889Z,0.00
2023-02-11T04:02:23.781Z,0.00
2023-02-11T04:03:23.792Z,0.00
2023-02-11T04:04:23.748Z,0.00
2023-02-11T04:05:23.739Z,0.00
2023-02-11T04:06:23.719Z,0.00
2023-02-11T04:07:23.748Z,0.00
2023-02-11T04:08:23.694Z,0.00
2023-02-11T04:09:23.698Z,0.00
2023-02-11T04:10:23.738Z,0.00
2023-02-11T04:11:23.724Z,0.00
2023-02-11T04:12:23.686Z,0.00
2023-02-11T04:13:23.650Z,0.00
2023-02-11T04:14:23.637Z,0.00
2023-02-11T04:15:23.644Z,0.00
2023-02-11T04:16:23.669Z,0.00
2023-02-11T04:17:23.608Z,0.00
2023-02-11T04:18:23.592Z,0.00
2023-02-11T04:19:23.603Z,0.00
2023-02-11T04:20:23.577Z,0.00
2023-02-11T04:21:23.569Z,0.00
2023-02-11T04:22:23.558Z,0.00
2023-02-11T04:23:23.552Z,0.00
2023-02-11T04:24:23.829Z,0.00
2023-02-11T04:25:23.525Z,0.00
2023-02-11T04:26:23.511Z,0.00
2023-02-11T04:27:23.512Z,0.00
2023-02-11T04:28:23.541Z,0.00
2023-02-11T04:29:23.491Z,0.00
2023-02-11T04:30:23.466Z,0.00
2023-02-11T04:31:23.615Z,0.00
2023-02-11T04:32:23.449Z,0.00
2023-02-11T04:33:23.453Z,0.00
2023-02-11T04:34:23.435Z,0.00
2023-02-11T04:35:23.431Z,0.00
2023-02-11T04:36:23.406Z,0.00
2023-02-11T04:37:23.406Z,0.00
2023-02-11T04:38:23.392Z,0.00
2023-02-11T04:39:23.393Z,0.00
2023-02-11T04:40:23.360Z,0.00
2023-02-11T04:41:23.355Z,0.00
2023-02-11T04:42:23.353Z,0.00
2023-02-11T04:43:23.346Z,0.00
2023-02-11T04:44:23.320Z,0.00
2023-02-11T04:45:23.317Z,0.00
2023-02-11T04:46:23.362Z,0.00
2023-02-11T04:47:23.287Z,0.00
2023-02-11T04:48:23.304Z,0.00
2023-02-11T04:49:23.283Z,0.00
2023-02-11T04:50:23.278Z,0.00
2023-02-11T04:51:23.251Z,0.00
2023-02-11T04:52:23.234Z,0.00
2023-02-11T04:53:23.267Z,0.00
2023-02-11T04:54:23.213Z,0.00
2023-02-11T04:55:23.216Z,0.00
2023-02-11T04:56:23.201Z,0.00
2023-02-11T04:57:23.180Z,0.00
2023-02-11T04:58:23.176Z,0.00
2023-02-11T04:59:23.159Z,0.00
2023-02-11T05:00:23.204Z,0.00
2023-02-11T05:01:23.219Z,0.00
2023-02-11T05:02:23.142Z,0.00
2023-02-11T05:03:23.126Z,0.00
2023-02-11T05:04:23.155Z,0.00
2023-02-11T05:05:23.095Z,0.00
2023-02-11T05:06:23.082Z,0.00
2023-02-11T05:07:23.076Z,0.00
2023-02-11T05:08:23.076Z,0.00
2023-02-11T05:09:23.050Z,0.00
2023-02-11T05:10:23.040Z,0.00
2023-02-11T05:11:23.042Z,0.00
2023-02-11T05:12:23.050Z,0.00
2023-02-11T05:13:23.021Z,0.00
2023-02-11T05:14:23.003Z,0.00
2023-02-11T05:15:22.987Z,0.00
2023-02-11T05:16:23.042Z,0.00
2023-02-11T05:17:22.986Z,0.00
2023-02-11T05:18:22.960Z,0.00
2023-02-11T05:19:22.949Z,0.00
2023-02-11T05:20:22.943Z,0.00
2023-02-11T05:21:22.926Z,0.00
2023-02-11T05:22:22.914Z,0.00
2023-02-11T05:23:22.920Z,0.00
2023-02-11T05:24:22.888Z,0.00
2023-02-11T05:25:22.897Z,0.00
2023-02-11T05:26:22.891Z,0.00
2023-02-11T05:27:22.860Z,0.00
2023-02-11T05:28:22.880Z,0.00
2023-02-11T05:29:22.853Z,0.00
2023-02-11T05:30:22.826Z,0.00
2023-02-11T05:31:22.826Z,0.00
2023-02-11T05:32:22.806Z,0.00
2023-02-11T05:33:22.818Z,0.00
2023-02-11T05:34:22.837Z,0.00
2023-02-11T05:35:22.789Z,0.00
2023-02-11T05:36:22.790Z,0.00
2023-02-11T05:37:22.818Z,0.00
2023-02-11T05:38:22.773Z,0.00
2023-02-11T05:39:22.735Z,0.00
2023-02-11T05:40:22.732Z,0.00
2023-02-11T05:41:22.712Z,0.00
2023-02-11T05:42:22.696Z,0.00
2023-02-11T05:43:22.701Z,0.00
2023-02-11T05:44:22.684Z,0.00
2023-02-11T05:45:22.706Z,0.00
2023-02-11T05:46:22.684Z,0.00
2023-02-11T05:47:22.658Z,0.00
2023-02-11T05:48:22.640Z,0.00
2023-02-11T05:49:22.629Z,0.00
2023-02-11T05:50:22.622Z,0.00
2023-02-11T05:51:22.625Z,0.00
2023-02-11T05:52:22.608Z,0.00
2023-02-11T05:53:22.589Z,0.00
2023-02-11T05:54:22.574Z,0.00
2023-02-11T05:55:22.570Z,0.00
2023-02-11T05:56:22.562Z,0.00
2023-02-11T05:57:22.550Z,0.00
2023-02-11T05:58:22.532Z,0.00
2023-02-11T05:59:22.529Z,0.00
2023-02-11T06:00:22.536Z,0.00
2023-02-11T06:01:22.500Z,0.00
2023-02-11T06:02:22.558Z,0.00
2023-02-11T06:03:22.507Z,0.00
2023-02-11T06:04:22.469Z,0.00
2023-02-11T06:05:22.488Z,0.00
2023-02-11T06:06:22.445Z,0.00
2023-02-11T06:07:22.443Z,0.00
2023-02-11T06:08:22.422Z,0.00
2023-02-11T06:09:22.423Z,0.00
2023-02-11T06:10:22.415Z,0.00
2023-02-11T06:11:22.395Z,0.00
2023-02-11T06:12:22.380Z,0.00
2023-02-11T06:13:22.380Z,0.00
2023-02-11T06:14:22.355Z,0.00
2023-02-11T06:15:22.362Z,0.00
2023-02-11T06:16:22.382Z,0.00
2023-02-11T06:17:22.336Z,0.00
2023-02-11T06:18:22.329Z,0.00
2023-02-11T06:19:22.311Z,0.00
2023-02-11T06:20:22.294Z,0.00
2023-02-11T06:21:23.863Z,0.00
2023-02-11T06:22:22.270Z,0.00
2023-02-11T06:23:22.268Z,0.00
2023-02-11T06:24:44.333Z,0.00
2023-02-11T06:25:22.259Z,0.00
2023-02-11T06:26:22.234Z,0.00
2023-02-11T06:27:22.232Z,0.00
2023-02-11T06:28:22.275Z,0.00
2023-02-11T06:29:22.226Z,0.00
2023-02-11T06:30:22.240Z,0.00
2023-02-11T06:31:22.302Z,0.00
2023-02-11T06:32:42.372Z,0.00
2023-02-11T06:33:22.189Z,0.00
2023-02-11T06:34:22.155Z,0.00
2023-02-11T06:35:22.146Z,0.00
2023-02-11T06:36:22.130Z,0.00
2023-02-11T06:37:22.065Z,1.00
2023-02-11T06:38:22.196Z,0.00
2023-02-11T06:39:22.098Z,0.00
2023-02-11T06:40:22.057Z,1.00
2023-02-11T06:41:22.034Z,1.00
2023-02-11T06:42:22.017Z,1.00
2023-02-11T06:43:22.007Z,1.00
2023-02-11T06:44:22.045Z,0.00
2023-02-11T06:45:22.008Z,2.00
2023-02-11T06:46:21.999Z,2.00
2023-02-11T06:47:21.960Z,1.00
2023-02-11T06:48:21.954Z,1.00
2023-02-11T06:49:21.943Z,2.00
2023-02-11T06:50:21.930Z,3.00
2023-02-11T06:51:21.918Z,1.00
2023-02-11T06:52:21.904Z,1.00
2023-02-11T06:53:21.896Z,2.00
2023-02-11T06:54:21.920Z,3.00
2023-02-11T06:55:21.886Z,3.00
2023-02-11T06:56:21.887Z,3.00
2023-02-11T06:57:21.903Z,5.00
2023-02-11T06:58:21.840Z,4.00
2023-02-11T06:59:21.837Z,4.00
2023-02-11T07:00:21.817Z,4.00
2023-02-11T07:01:21.846Z,8.00
2023-02-11T07:02:21.805Z,8.00
2023-02-11T07:03:21.794Z,8.00
2023-02-11T07:04:21.785Z,7.00
2023-02-11T07:05:21.772Z,7.00
2023-02-11T07:06:21.785Z,8.00
2023-02-11T07:07:21.769Z,10.00
2023-02-11T07:08:21.755Z,10.00
2023-02-11T07:09:21.733Z,11.00
2023-02-11T07:10:21.727Z,9.00
2023-02-11T07:11:21.713Z,9.00
2023-02-11T07:12:21.689Z,11.00
2023-02-11T07:13:21.692Z,11.00
2023-02-11T07:14:21.676Z,9.00
2023-02-11T07:15:21.674Z,15.00
2023-02-11T07:16:21.725Z,15.00
2023-02-11T07:17:21.688Z,15.00
2023-02-11T07:18:21.625Z,14.00
2023-02-11T07:19:21.641Z,17.00
2023-02-11T07:20:21.613Z,17.00
2023-02-11T07:21:21.598Z,18.00
2023-02-11T07:22:21.595Z,19.00
2023-02-11T07:23:21.615Z,17.00
2023-02-11T07:24:21.610Z,20.00
2023-02-11T07:25:21.558Z,17.00
2023-02-11T07:26:42.563Z,25.00
2023-02-11T07:27:21.560Z,24.00
2023-02-11T07:28:21.609Z,24.00
2023-02-11T07:29:21.526Z,31.00
2023-02-11T07:30:21.829Z,28.00
2023-02-11T07:31:21.671Z,31.00
2023-02-11T07:32:21.487Z,24.00
2023-02-11T07:33:21.470Z,31.00
2023-02-11T07:34:21.514Z,31.00
2023-02-11T07:35:21.461Z,35.00
2023-02-11T07:36:21.438Z,32.00
2023-02-11T07:37:21.444Z,39.00
2023-02-11T07:38:21.428Z,40.00
2023-02-11T07:39:21.429Z,48.00
2023-02-11T07:40:21.409Z,46.00
2023-02-11T07:41:21.388Z,46.00
2023-02-11T07:42:21.376Z,47.00
2023-02-11T07:43:21.370Z,47.00
2023-02-11T07:44:21.352Z,53.00
2023-02-11T07:45:21.343Z,56.00
2023-02-11T07:46:21.468Z,57.00
2023-02-11T07:47:21.342Z,52.00
2023-02-11T07:48:21.336Z,66.00
2023-02-11T07:49:21.307Z,67.00
2023-02-11T07:50:21.283Z,70.00
2023-02-11T07:51:21.292Z,67.00
2023-02-11T07:52:21.274Z,80.00
2023-02-11T07:53:21.261Z,82.00
2023-02-11T07:54:21.252Z,79.00
2023-02-11T07:55:21.270Z,77.00
2023-02-11T07:56:21.226Z,80.00
2023-02-11T07:57:21.232Z,83.00
2023-02-11T07:58:21.214Z,95.00
2023-02-11T07:59:21.204Z,84.00
2023-02-11T08:00:21.357Z,111.00
2023-02-11T08:01:21.210Z,91.00
2023-02-11T08:02:21.216Z,104.00
2023-02-11T08:03:21.163Z,99.00
2023-02-11T08:04:21.209Z,92.00
2023-02-11T08:05:21.130Z,104.00
2023-02-11T08:06:21.140Z,100.00
2023-02-11T08:07:21.136Z,92.00
2023-02-11T08:08:21.110Z,98.00
2023-02-11T08:09:21.112Z,96.00
2023-02-11T08:10:21.074Z,100.00
2023-02-11T08:11:21.082Z,101.00
2023-02-11T08:12:21.075Z,119.00
2023-02-11T08:13:21.055Z,115.00
2023-02-11T08:14:21.046Z,117.00
2023-02-11T08:15:21.034Z,123.00
2023-02-11T08:16:21.089Z,127.00
2023-02-11T08:17:21.015Z,126.00
2023-02-11T08:18:20.988Z,123.00
2023-02-11T08:19:20.981Z,136.00
2023-02-11T08:20:20.991Z,123.00
2023-02-11T08:21:20.984Z,151.00
2023-02-11T08:22:20.947Z,142.00
2023-02-11T08:23:20.974Z,131.00
2023-02-11T08:24:20.930Z,139.00
2023-02-11T08:25:20.918Z,140.00
2023-02-11T08:26:20.902Z,132.00
2023-02-11T08:27:20.905Z,115.00
2023-02-11T08:28:20.923Z,119.00
2023-02-11T08:29:20.930Z,121.00
2023-02-11T08:30:20.868Z,117.00
2023-02-11T08:31:21.050Z,112.00
2023-02-11T08:32:20.930Z,119.00
2023-02-11T08:33:20.840Z,117.00
2023-02-11T08:34:20.821Z,127.00
2023-02-11T08:35:20.813Z,126.00
2023-02-11T08:36:20.793Z,122.00
2023-02-11T08:37:20.797Z,125.00
2023-02-11T08:38:20.804Z,127.00
2023-02-11T08:39:28.304Z,141.00
2023-02-11T08:40:20.750Z,150.00
2023-02-11T08:41:20.745Z,173.00
2023-02-11T08:42:20.740Z,176.00
2023-02-11T08:43:20.732Z,155.00
2023-02-11T08:44:20.734Z,158.00
2023-02-11T08:45:20.708Z,196.00
2023-02-11T08:46:20.783Z,210.00
2023-02-11T08:47:20.682Z,201.00
2023-02-11T08:48:20.679Z,176.00
2023-02-11T08:49:20.676Z,210.00
2023-02-11T08:50:20.663Z,182.00
2023-02-11T08:51:20.652Z,224.00
2023-02-11T08:52:20.648Z,231.00
2023-02-11T08:53:20.644Z,235.00
2023-02-11T08:54:20.616Z,205.00
2023-02-11T08:55:20.613Z,269.00
2023-02-11T08:56:20.608Z,255.00
2023-02-11T08:57:20.577Z,233.00
2023-02-11T08:58:20.576Z,238.00
2023-02-11T08:59:20.595Z,233.00
2023-02-11T09:00:20.541Z,281.00
2023-02-11T09:01:22.729Z,284.00
2023-02-11T09:02:20.582Z,300.00
2023-02-11T09:03:20.559Z,285.00
2023-02-11T09:04:20.506Z,285.00
2023-02-11T09:05:20.525Z,311.00
2023-02-11T09:06:20.482Z,319.00
2023-02-11T09:07:20.477Z,308.00
2023-02-11T09:08:20.455Z,258.00
2023-02-11T09:09:20.450Z,289.00
2023-02-11T09:10:20.433Z,308.00
2023-02-11T09:11:20.427Z,334.00
2023-02-11T09:12:20.424Z,310.00
2023-02-11T09:13:20.413Z,378.00
2023-02-11T09:14:20.437Z,340.00
2023-02-11T09:15:20.386Z,418.00
2023-02-11T09:16:20.409Z,393.00
2023-02-11T09:17:20.372Z,388.00
2023-02-11T09:18:20.402Z,430.00
2023-02-11T09:19:20.364Z,410.00
2023-02-11T09:20:20.379Z,412.00
2023-02-11T09:21:20.326Z,419.00
2023-02-11T09:22:20.312Z,417.00
2023-02-11T09:23:20.330Z,466.00
2023-02-11T09:24:20.291Z,450.00
2023-02-11T09:25:20.323Z,433.00
2023-02-11T09:26:20.302Z,461.00
2023-02-11T09:27:20.273Z,391.00
2023-02-11T09:28:20.314Z,415.00
2023-02-11T09:29:20.240Z,349.00
2023-02-11T09:30:20.292Z,400.00
2023-02-11T09:31:20.343Z,415.00
2023-02-11T09:32:20.214Z,404.00
2023-02-11T09:33:20.200Z,333.00
2023-02-11T09:34:20.200Z,406.00
2023-02-11T09:35:20.209Z,358.00
2023-02-11T09:36:20.162Z,390.00
2023-02-11T09:37:20.153Z,356.00
2023-02-11T09:38:20.555Z,398.00
2023-02-11T09:39:20.148Z,377.00
2023-02-11T09:40:20.158Z,371.00
2023-02-11T09:41:20.125Z,312.00
2023-02-11T09:42:20.126Z,384.00
2023-02-11T09:43:20.089Z,341.00
2023-02-11T09:44:20.076Z,376.00
2023-02-11T09:45:20.070Z,318.00
2023-02-11T09:46:20.097Z,426.00
2023-02-11T09:47:20.053Z,404.00
2023-02-11T09:48:20.036Z,462.00
2023-02-11T09:49:20.043Z,449.00
2023-02-11T09:50:20.013Z,489.00
2023-02-11T09:51:20.008Z,441.00
2023-02-11T09:52:20.000Z,398.00
2023-02-11T09:53:19.995Z,465.00
2023-02-11T09:54:20.020Z,429.00
2023-02-11T09:55:19.989Z,458.00
2023-02-11T09:56:19.948Z,408.00
2023-02-11T09:57:28.652Z,385.00
2023-02-11T09:58:19.937Z,437.00
2023-02-11T09:59:19.939Z,360.00
2023-02-11T10:00:19.908Z,495.00
2023-02-11T10:01:21.033Z,481.00
2023-02-11T10:02:19.913Z,454.00
2023-02-11T10:03:19.901Z,426.00
2023-02-11T10:04:19.911Z,445.00
2023-02-11T10:05:19.905Z,396.00
2023-02-11T10:06:19.856Z,451.00
2023-02-11T10:07:19.841Z,452.00
2023-02-11T10:08:19.836Z,408.00
2023-02-11T10:09:19.821Z,427.00
2023-02-11T10:10:19.856Z,396.00
2023-02-11T10:11:30.984Z,435.00
2023-02-11T10:12:19.797Z,428.00
2023-02-11T10:13:19.789Z,386.00
2023-02-11T10:14:19.787Z,468.00
2023-02-11T10:15:19.761Z,468.00
2023-02-11T10:16:19.744Z,493.00
2023-02-11T10:17:19.742Z,422.00
2023-02-11T10:18:19.728Z,453.00
2023-02-11T10:19:19.718Z,451.00
2023-02-11T10:20:19.722Z,495.00
2023-02-11T10:21:19.690Z,437.00
2023-02-11T10:22:19.696Z,473.00
2023-02-11T10:23:19.670Z,417.00
2023-02-11T10:24:19.664Z,384.00
2023-02-11T10:25:19.715Z,455.00
2023-02-11T10:26:19.668Z,529.00
2023-02-11T10:27:19.631Z,502.00
2023-02-11T10:28:19.675Z,524.00
2023-02-11T10:29:19.605Z,485.00
2023-02-11T10:30:19.641Z,456.00
2023-02-11T10:31:19.949Z,447.00
2023-02-11T10:32:19.586Z,503.00
2023-02-11T10:33:19.574Z,482.00
2023-02-11T10:34:19.555Z,474.00
2023-02-11T10:35:19.549Z,500.00
2023-02-11T10:36:19.530Z,515.00
2023-02-11T10:37:19.534Z,494.00
2023-02-11T10:38:19.526Z,496.00
2023-02-11T10:39:19.507Z,450.00
2023-02-11T10:40:19.540Z,444.00
2023-02-11T10:41:19.507Z,432.00
2023-02-11T10:42:19.466Z,444.00
2023-02-11T10:43:19.471Z,437.00
2023-02-11T10:44:19.479Z,411.00
2023-02-11T10:45:19.447Z,469.00
2023-02-11T10:46:19.498Z,450.00
2023-02-11T10:47:19.421Z,430.00
2023-02-11T10:48:19.405Z,407.00
2023-02-11T10:49:19.415Z,422.00
2023-02-11T10:50:19.417Z,397.00
2023-02-11T10:51:19.380Z,439.00
2023-02-11T10:52:19.372Z,438.00
2023-02-11T10:53:19.374Z,418.00
2023-02-11T10:54:19.388Z,492.00
2023-02-11T10:55:19.337Z,471.00
2023-02-11T10:56:19.319Z,432.00
2023-02-11T10:57:19.306Z,489.00
2023-02-11T10:58:19.317Z,506.00
2023-02-11T10:59:21.519Z,512.00
2023-02-11T11:00:19.326Z,485.00
2023-02-11T11:01:24.717Z,430.00
2023-02-11T11:02:19.269Z,498.00
2023-02-11T11:03:19.264Z,495.00
2023-02-11T11:04:19.267Z,476.00
2023-02-11T11:05:19.301Z,419.00
2023-02-11T11:06:19.232Z,480.00
2023-02-11T11:07:19.209Z,471.00
2023-02-11T11:08:19.192Z,466.00
2023-02-11T11:09:19.180Z,454.00
2023-02-11T11:10:19.269Z,408.00
2023-02-11T11:11:19.171Z,480.00
2023-02-11T11:12:19.154Z,479.00
2023-02-11T11:13:19.150Z,515.00
2023-02-11T11:14:19.131Z,460.00
2023-02-11T11:15:19.201Z,475.00
2023-02-11T11:16:19.200Z,437.00
2023-02-11T11:17:19.100Z,477.00
2023-02-11T11:18:23.378Z,472.00
2023-02-11T11:19:20.311Z,473.00
2023-02-11T11:20:19.084Z,454.00
2023-02-11T11:21:19.075Z,422.00
2023-02-11T11:22:19.060Z,357.00
2023-02-11T11:23:19.048Z,437.00
2023-02-11T11:24:19.027Z,411.00
2023-02-11T11:25:19.014Z,389.00
2023-02-11T11:26:19.010Z,384.00
2023-02-11T11:27:19.005Z,364.00
2023-02-11T11:28:19.109Z,334.00
2023-02-11T11:29:18.994Z,363.00
2023-02-11T11:30:19.050Z,325.00
2023-02-11T11:31:19.118Z,355.00
2023-02-11T11:32:20.612Z,366.00
2023-02-11T11:33:18.941Z,349.00
2023-02-11T11:34:18.930Z,313.00
2023-02-11T11:35:18.909Z,337.00
2023-02-11T11:36:18.900Z,355.00
2023-02-11T11:37:18.886Z,381.00
2023-02-11T11:38:18.876Z,349.00
2023-02-11T11:39:18.857Z,344.00
2023-02-11T11:40:18.864Z,362.00
2023-02-11T11:41:18.846Z,328.00
2023-02-11T11:42:18.832Z,318.00
2023-02-11T11:43:21.321Z,412.00
2023-02-11T11:44:18.808Z,362.00
2023-02-11T11:45:18.821Z,410.00
2023-02-11T11:46:18.813Z,351.00
2023-02-11T11:47:18.802Z,394.00
2023-02-11T11:48:18.775Z,371.00
2023-02-11T11:49:18.748Z,376.00
2023-02-11T11:50:21.033Z,376.00
2023-02-11T11:51:18.727Z,366.00
2023-02-11T11:52:18.721Z,415.00
2023-02-11T11:53:18.713Z,392.00
2023-02-11T11:54:18.740Z,343.00
2023-02-11T11:55:18.693Z,369.00
2023-02-11T11:56:18.695Z,404.00
2023-02-11T11:57:18.666Z,347.00
2023-02-11T11:58:18.670Z,365.00
2023-02-11T11:59:18.646Z,401.00
2023-02-11T12:00:18.644Z,423.00
2023-02-11T12:01:18.638Z,464.00
2023-02-11T12:02:18.663Z,423.00
2023-02-11T12:03:18.798Z,414.00
2023-02-11T12:04:18.605Z,465.00
2023-02-11T12:05:18.640Z,445.00
2023-02-11T12:06:18.577Z,364.00
2023-02-11T12:07:18.562Z,486.00
2023-02-11T12:08:18.554Z,440.00
2023-02-11T12:09:18.559Z,515.00
2023-02-11T12:10:18.604Z,489.00
2023-02-11T12:11:18.529Z,404.00
2023-02-11T12:12:18.506Z,511.00
2023-02-11T12:13:18.530Z,463.00
2023-02-11T12:14:18.498Z,494.00
2023-02-11T12:15:18.481Z,504.00
2023-02-11T12:16:18.515Z,464.00
2023-02-11T12:17:18.452Z,478.00
2023-02-11T12:18:18.454Z,450.00
2023-02-11T12:19:18.428Z,402.00
2023-02-11T12:20:18.435Z,327.00
2023-02-11T12:21:18.426Z,390.00
2023-02-11T12:22:18.448Z,399.00
2023-02-11T12:23:18.415Z,471.00
2023-02-11T12:24:18.426Z,416.00
2023-02-11T12:25:18.380Z,383.00
2023-02-11T12:26:18.359Z,408.00
2023-02-11T12:27:18.350Z,473.00
2023-02-11T12:28:18.399Z,522.00
2023-02-11T12:29:18.350Z,404.00
2023-02-11T12:30:18.331Z,497.00
2023-02-11T12:31:18.449Z,765.00
2023-02-11T12:32:18.336Z,590.00
2023-02-11T12:33:18.290Z,668.00
2023-02-11T12:34:18.280Z,567.00
2023-02-11T12:35:18.277Z,625.00
2023-02-11T12:36:18.256Z,637.00
2023-02-11T12:37:18.283Z,642.00
2023-02-11T12:38:18.241Z,721.00
2023-02-11T12:39:18.229Z,720.00
2023-02-11T12:40:18.215Z,712.00
2023-02-11T12:41:18.224Z,594.00
2023-02-11T12:42:18.219Z,726.00
2023-02-11T12:43:18.213Z,682.00
2023-02-11T12:44:18.185Z,589.00
2023-02-11T12:45:18.162Z,642.00
2023-02-11T12:46:18.273Z,547.00
2023-02-11T12:47:18.138Z,595.00
2023-02-11T12:48:18.133Z,667.00
2023-02-11T12:49:18.127Z,479.00
2023-02-11T12:50:18.138Z,765.00
2023-02-11T12:51:18.093Z,692.00
2023-02-11T12:52:18.085Z,633.00
2023-02-11T12:53:18.089Z,527.00
2023-02-11T12:54:18.092Z,612.00
2023-02-11T12:55:18.049Z,699.00
2023-02-11T12:56:18.041Z,644.00
2023-02-11T12:57:18.029Z,400.00